createdAt,value
2022-12-18T00:02:18.481Z,17.75
2022-12-18T00:04:49.855Z,17.52
2022-12-18T00:07:21.115Z,13.90
2022-12-18T00:09:52.375Z,12.50
2022-12-18T00:12:23.708Z,16.73
2022-12-18T00:14:55.060Z,11.40
2022-12-18T00:17:26.361Z,22.60
2022-12-18T00:19:57.616Z,13.32
2022-12-18T00:22:28.908Z,13.95
2022-12-18T00:25:00.250Z,18.75
2022-12-18T00:27:31.570Z,15.00
2022-12-18T00:30:03.381Z,12.93
2022-12-18T00:32:34.646Z,16.55
2022-12-18T00:35:07.184Z,16.20
2022-12-18T00:37:38.520Z,10.02
2022-12-18T00:40:10.502Z,12.93
2022-12-18T00:42:57.025Z,13.48
2022-12-18T00:45:31.495Z,17.88
2022-12-18T00:48:03.160Z,12.32
2022-12-18T00:50:34.700Z,15.27
2022-12-18T00:53:06.234Z,13.40
2022-12-18T00:55:41.982Z,22.33
2022-12-18T00:58:15.780Z,15.18
2022-12-18T01:00:47.098Z,17.15
2022-12-18T01:03:18.711Z,14.27
2022-12-18T01:05:50.088Z,16.80
2022-12-18T01:08:21.356Z,13.93
2022-12-18T01:10:52.604Z,14.75
2022-12-18T01:13:23.859Z,12.27
2022-12-18T01:15:55.111Z,17.15
2022-12-18T01:18:26.615Z,13.10
2022-12-18T01:20:57.942Z,16.05
2022-12-18T01:23:29.224Z,12.40
2022-12-18T01:26:06.347Z,15.65
2022-12-18T01:28:38.320Z,15.10
2022-12-18T01:31:13.101Z,12.70
2022-12-18T01:33:45.210Z,13.20
2022-12-18T01:36:22.955Z,14.32
2022-12-18T01:38:54.500Z,13.35
2022-12-18T01:41:48.859Z,11.43
2022-12-18T01:44:48.554Z,13.27
2022-12-18T01:47:28.612Z,14.60
2022-12-18T01:50:04.049Z,13.57
2022-12-18T01:52:35.696Z,14.20
2022-12-18T01:55:08.594Z,18.90
2022-12-18T01:57:41.264Z,19.10
2022-12-18T02:00:16.272Z,12.18
2022-12-18T02:02:48.104Z,12.68
2022-12-18T02:05:58.407Z,13.70
2022-12-18T02:08:35.510Z,16.15
2022-12-18T02:11:25.021Z,16.35
2022-12-18T02:14:12.296Z,18.08
2022-12-18T02:16:53.654Z,11.20
2022-12-18T02:19:52.671Z,11.50
2022-12-18T02:22:42.831Z,15.70
2022-12-18T02:25:31.495Z,9.95
2022-12-18T02:28:07.299Z,12.80
2022-12-18T02:30:40.735Z,14.82
2022-12-18T02:33:14.284Z,17.35
2022-12-18T02:35:46.747Z,13.73
2022-12-18T02:38:18.658Z,11.30
2022-12-18T02:40:52.068Z,13.68
2022-12-18T02:43:23.381Z,14.55
2022-12-18T02:45:59.863Z,12.80
2022-12-18T02:48:35.990Z,9.25
2022-12-18T02:51:21.307Z,12.82
2022-12-18T02:54:14.602Z,9.43
2022-12-18T02:56:52.598Z,15.43
2022-12-18T02:59:37.857Z,13.40
2022-12-18T03:02:28.919Z,12.07
2022-12-18T03:05:28.948Z,15.25
2022-12-18T03:08:06.848Z,13.10
2022-12-18T03:10:56.602Z,14.05
2022-12-18T03:13:52.678Z,12.15
2022-12-18T03:16:29.177Z,10.15
2022-12-18T03:19:11.798Z,12.40
2022-12-18T03:21:50.401Z,11.25
2022-12-18T03:24:23.764Z,13.70
2022-12-18T03:27:01.552Z,10.88
2022-12-18T03:29:48.597Z,13.20
2022-12-18T03:32:28.004Z,11.93
2022-12-18T03:35:03.661Z,12.55
2022-12-18T03:37:35.352Z,12.38
2022-12-18T03:40:07.364Z,10.80
2022-12-18T03:42:49.655Z,11.18
2022-12-18T03:45:28.190Z,9.73
2022-12-18T03:48:12.105Z,12.20
2022-12-18T03:50:55.604Z,15.32
2022-12-18T03:53:50.028Z,12.18
2022-12-18T03:56:23.595Z,11.63
2022-12-18T03:58:57.475Z,10.50
2022-12-18T04:01:36.926Z,8.82
2022-12-18T04:04:11.219Z,10.55
2022-12-18T04:06:44.527Z,12.20
2022-12-18T04:09:15.931Z,11.43
2022-12-18T04:11:48.086Z,14.45
2022-12-18T04:14:19.349Z,12.48
2022-12-18T04:16:50.602Z,10.95
2022-12-18T04:19:21.853Z,12.60
2022-12-18T04:21:53.128Z,11.73
2022-12-18T04:24:24.460Z,10.27
2022-12-18T04:26:55.735Z,12.57
2022-12-18T04:29:26.988Z,10.95
2022-12-18T04:31:58.249Z,12.02
2022-12-18T04:34:29.550Z,8.85
2022-12-18T04:37:00.866Z,10.25
2022-12-18T04:39:32.216Z,12.45
2022-12-18T04:42:03.599Z,11.60
2022-12-18T04:44:35.188Z,11.82
2022-12-18T04:47:06.460Z,12.50
2022-12-18T04:49:37.732Z,10.82
2022-12-18T04:52:09.109Z,12.60
2022-12-18T04:54:40.428Z,11.45
2022-12-18T04:57:11.703Z,10.43
2022-12-18T04:59:42.946Z,10.48
2022-12-18T05:02:14.317Z,14.73
2022-12-18T05:04:45.788Z,11.27
2022-12-18T05:07:17.034Z,12.20
2022-12-18T05:09:48.271Z,11.43
2022-12-18T05:12:19.529Z,10.82
2022-12-18T05:14:50.817Z,14.77
2022-12-18T05:17:22.115Z,10.65
2022-12-18T05:19:53.450Z,10.27
2022-12-18T05:22:25.780Z,8.50
2022-12-18T05:24:57.027Z,12.25
2022-12-18T05:27:28.293Z,9.40
2022-12-18T05:29:59.537Z,14.13
2022-12-18T05:32:30.835Z,8.38
2022-12-18T05:35:02.224Z,9.70
2022-12-18T05:37:36.887Z,9.45
2022-12-18T05:40:11.978Z,10.45
2022-12-18T05:42:43.235Z,9.60
2022-12-18T05:45:14.486Z,10.00
2022-12-18T05:47:45.753Z,9.00
2022-12-18T05:50:17.036Z,13.95
2022-12-18T05:52:48.324Z,9.90
2022-12-18T05:55:19.571Z,11.40
2022-12-18T05:57:50.821Z,10.07
2022-12-18T06:00:22.149Z,13.13
2022-12-18T06:02:53.666Z,9.32
2022-12-18T06:05:25.047Z,8.88
2022-12-18T06:07:56.415Z,10.35
2022-12-18T06:10:27.780Z,12.95
2022-12-18T06:13:00.422Z,14.00
2022-12-18T06:15:31.723Z,11.15
2022-12-18T06:18:03.029Z,11.38
2022-12-18T06:20:34.567Z,8.98
2022-12-18T06:23:06.532Z,9.77
2022-12-18T06:25:39.544Z,10.38
2022-12-18T06:28:10.953Z,10.77
2022-12-18T06:30:44.934Z,13.27
2022-12-18T06:33:16.868Z,10.65
2022-12-18T06:35:48.128Z,13.70
2022-12-18T06:38:19.392Z,11.57
2022-12-18T06:40:50.647Z,10.30
2022-12-18T06:43:21.930Z,11.55
2022-12-18T06:46:00.818Z,27.70
2022-12-18T06:48:33.016Z,12.73
2022-12-18T06:51:04.866Z,13.18
2022-12-18T06:53:36.120Z,9.95
2022-12-18T06:56:10.596Z,15.60
2022-12-18T06:58:42.210Z,10.18
2022-12-18T07:01:14.307Z,11.38
2022-12-18T07:03:46.203Z,11.18
2022-12-18T07:06:19.954Z,12.40
2022-12-18T07:08:52.403Z,10.82
2022-12-18T07:11:24.056Z,10.73
2022-12-18T07:13:55.443Z,11.35
2022-12-18T07:16:27.342Z,13.00
2022-12-18T07:18:58.616Z,11.93
2022-12-18T07:21:29.865Z,18.38
2022-12-18T07:24:01.135Z,23.95
2022-12-18T07:26:32.531Z,16.92
2022-12-18T07:29:03.796Z,15.93
2022-12-18T07:31:35.101Z,17.42
2022-12-18T07:34:06.380Z,16.90
2022-12-18T07:36:37.623Z,15.00
2022-12-18T07:39:09.016Z,14.35
2022-12-18T07:41:46.771Z,13.18
2022-12-18T07:44:18.480Z,17.80
2022-12-18T07:46:49.723Z,9.57
2022-12-18T07:49:20.979Z,10.40
2022-12-18T07:51:54.332Z,12.75
2022-12-18T07:54:25.756Z,20.33
2022-12-18T07:56:57.023Z,12.90
2022-12-18T07:59:28.272Z,13.57
2022-12-18T08:01:59.787Z,16.60
2022-12-18T08:04:31.341Z,12.00
2022-12-18T08:07:02.681Z,13.75
2022-12-18T08:09:33.944Z,9.63
2022-12-18T08:12:05.644Z,14.35
2022-12-18T08:14:36.952Z,7.90
2022-12-18T08:17:08.326Z,12.90
2022-12-18T08:19:39.613Z,10.98
2022-12-18T08:22:10.877Z,9.93
2022-12-18T08:24:42.281Z,10.80
2022-12-18T08:27:29.031Z,11.00
2022-12-18T08:30:01.150Z,9.80
2022-12-18T08:32:33.938Z,10.43
2022-12-18T08:35:05.740Z,9.88
2022-12-18T08:37:37.035Z,12.45
2022-12-18T08:40:09.081Z,11.13
2022-12-18T08:42:59.028Z,10.80
2022-12-18T08:45:30.444Z,9.80
2022-12-18T08:48:01.785Z,13.60
2022-12-18T08:50:33.201Z,11.50
2022-12-18T08:53:04.752Z,9.13
2022-12-18T08:55:36.205Z,13.60
2022-12-18T08:58:07.452Z,12.70
2022-12-18T09:00:38.708Z,8.65
2022-12-18T09:03:17.979Z,11.85
2022-12-18T09:05:49.623Z,13.23
2022-12-18T09:08:20.901Z,13.52
2022-12-18T09:10:52.524Z,12.07
2022-12-18T09:13:23.913Z,7.80
2022-12-18T09:15:56.173Z,15.15
2022-12-18T09:18:27.460Z,10.85
2022-12-18T09:20:58.794Z,10.38
2022-12-18T09:23:30.095Z,8.82
2022-12-18T09:26:01.397Z,8.45
2022-12-18T09:28:32.657Z,13.13
2022-12-18T09:31:07.528Z,8.35
2022-12-18T09:33:39.012Z,8.90
2022-12-18T09:36:13.456Z,7.60
2022-12-18T09:38:45.245Z,12.40
2022-12-18T09:41:41.807Z,6.73
2022-12-18T09:44:16.736Z,7.90
2022-12-18T09:46:54.761Z,13.97
2022-12-18T09:49:30.053Z,10.00
2022-12-18T09:52:09.352Z,9.17
2022-12-18T09:54:42.388Z,7.85
2022-12-18T09:57:21.359Z,10.30
2022-12-18T10:00:19.521Z,9.67
2022-12-18T10:02:53.943Z,10.00
2022-12-18T10:05:43.506Z,13.07
2022-12-18T10:08:22.710Z,11.63
2022-12-18T10:10:58.892Z,12.23
2022-12-18T10:13:40.689Z,12.63
2022-12-18T10:16:36.394Z,14.07
2022-12-18T10:19:16.664Z,13.50
2022-12-18T10:22:12.000Z,11.53
2022-12-18T10:24:53.506Z,8.77
2022-12-18T10:27:27.362Z,9.27
2022-12-18T10:29:59.049Z,10.50
2022-12-18T10:32:31.732Z,9.73
2022-12-18T10:35:02.996Z,10.87
2022-12-18T10:37:34.266Z,9.37
2022-12-18T10:40:21.919Z,7.40
2022-12-18T10:43:07.157Z,7.87
2022-12-18T10:45:38.555Z,7.43
2022-12-18T10:48:22.156Z,11.30
2022-12-18T10:51:10.739Z,9.60
2022-12-18T10:53:55.227Z,8.27
2022-12-18T10:56:28.662Z,8.30
2022-12-18T10:59:08.895Z,13.13
2022-12-18T11:01:54.814Z,10.93
2022-12-18T11:04:32.379Z,12.68
2022-12-18T11:07:06.179Z,11.13
2022-12-18T11:09:40.548Z,10.83
2022-12-18T11:12:18.743Z,8.77
2022-12-18T11:14:52.801Z,7.93
2022-12-18T11:17:35.837Z,8.80
2022-12-18T11:20:30.833Z,12.10
2022-12-18T11:23:12.316Z,8.80
2022-12-18T11:25:52.778Z,8.80
2022-12-18T11:28:41.964Z,7.80
2022-12-18T11:31:20.977Z,9.87
2022-12-18T11:34:27.545Z,6.77
2022-12-18T11:36:50.489Z,8.13
2022-12-18T11:39:43.747Z,7.90
2022-12-18T11:42:25.355Z,10.47
2022-12-18T11:45:09.097Z,9.67
2022-12-18T11:48:02.487Z,9.83
2022-12-18T11:50:56.551Z,8.57
2022-12-18T11:53:31.203Z,9.13
2022-12-18T11:56:26.914Z,6.70
2022-12-18T11:59:33.324Z,5.30
2022-12-18T12:02:27.147Z,8.87
2022-12-18T12:05:30.825Z,6.40
2022-12-18T12:08:02.036Z,9.17
2022-12-18T12:10:38.951Z,4.93
2022-12-18T12:13:37.558Z,8.33
2022-12-18T12:16:18.421Z,6.67
2022-12-18T12:18:53.335Z,10.23
2022-12-18T12:21:34.184Z,6.53
2022-12-18T12:24:23.546Z,11.93
2022-12-18T12:27:08.822Z,5.80
2022-12-18T12:30:10.290Z,8.20
2022-12-18T12:32:46.770Z,7.63
2022-12-18T12:35:49.247Z,6.23
2022-12-18T12:38:29.497Z,6.40
2022-12-18T12:41:06.173Z,6.73
2022-12-18T12:43:50.260Z,5.07
2022-12-18T12:46:23.878Z,4.33
2022-12-18T12:49:01.817Z,6.97
2022-12-18T12:51:36.387Z,5.72
2022-12-18T12:54:20.395Z,5.97
2022-12-18T12:57:01.412Z,6.33
2022-12-18T12:59:46.861Z,5.70
2022-12-18T13:02:29.375Z,4.90
2022-12-18T13:05:26.826Z,6.57
2022-12-18T13:10:34.919Z,6.03
2022-12-18T13:13:13.120Z,5.90
2022-12-18T13:16:06.195Z,11.23
2022-12-18T13:18:39.057Z,6.73
2022-12-18T13:21:24.860Z,7.90
2022-12-18T13:23:58.476Z,11.83
2022-12-18T13:26:31.862Z,5.30
2022-12-18T13:29:05.077Z,9.00
2022-12-18T13:31:42.459Z,9.67
2022-12-18T13:34:27.914Z,8.60
2022-12-18T13:37:40.638Z,5.10
2022-12-18T13:40:39.599Z,6.50
2022-12-18T13:43:19.785Z,5.37
2022-12-18T13:46:03.472Z,8.77
2022-12-18T13:48:38.893Z,6.80
2022-12-18T13:51:17.396Z,5.60
2022-12-18T13:53:52.224Z,7.80
2022-12-18T13:56:26.748Z,8.37
2022-12-18T13:59:23.299Z,8.70
2022-12-18T14:01:59.536Z,10.53
2022-12-18T14:04:35.913Z,10.13
2022-12-18T14:07:21.782Z,7.93
2022-12-18T14:13:00.976Z,7.80
2022-12-18T14:15:42.083Z,8.83
2022-12-18T14:18:39.929Z,11.17
2022-12-18T14:21:24.906Z,13.60
2022-12-18T14:24:18.269Z,12.87
2022-12-18T14:26:51.861Z,13.33
2022-12-18T14:29:30.233Z,10.87
2022-12-18T14:32:05.703Z,14.07
2022-12-18T14:34:37.089Z,16.75
2022-12-18T14:37:12.743Z,14.63
2022-12-18T14:39:58.770Z,10.07
2022-12-18T14:42:30.410Z,11.80
2022-12-18T14:45:37.417Z,12.60
2022-12-18T14:48:12.672Z,13.10
2022-12-18T14:50:54.616Z,16.63
2022-12-18T14:53:52.412Z,16.03
2022-12-18T14:56:29.001Z,12.57
2022-12-18T14:59:13.284Z,13.27
2022-12-18T15:01:58.771Z,15.50
2022-12-18T15:04:36.668Z,14.33
2022-12-18T15:07:18.575Z,16.50
2022-12-18T15:10:08.731Z,18.70
2022-12-18T15:12:49.275Z,22.23
2022-12-18T15:15:45.669Z,17.40
2022-12-18T15:18:20.919Z,21.10
2022-12-18T15:21:01.016Z,24.40
2022-12-18T15:23:37.546Z,19.40
2022-12-18T15:26:12.584Z,26.17
2022-12-18T15:28:59.429Z,16.93
2022-12-18T15:31:38.731Z,18.80
2022-12-18T15:34:13.734Z,20.47
2022-12-18T15:36:45.533Z,25.77
2022-12-18T15:39:16.803Z,27.93
2022-12-18T15:42:06.646Z,24.20
2022-12-18T15:44:38.278Z,25.63
2022-12-18T15:47:12.621Z,27.07
2022-12-18T15:49:43.942Z,27.07
2022-12-18T15:52:26.620Z,25.50
2022-12-18T15:55:16.467Z,24.63
2022-12-18T15:57:47.842Z,20.43
2022-12-18T16:00:19.570Z,26.17
2022-12-18T16:02:51.002Z,22.50
2022-12-18T16:05:23.851Z,32.67
2022-12-18T16:07:55.227Z,28.97
2022-12-18T16:10:27.359Z,27.80
2022-12-18T16:12:58.718Z,23.20
2022-12-18T16:15:30.077Z,22.33
2022-12-18T16:18:01.346Z,27.03
2022-12-18T16:20:32.596Z,24.27
2022-12-18T16:23:03.857Z,22.80
2022-12-18T16:25:35.196Z,21.83
2022-12-18T16:28:06.455Z,24.33
2022-12-18T16:30:38.625Z,20.00
2022-12-18T16:33:11.585Z,24.73
2022-12-18T16:35:42.948Z,21.80
2022-12-18T16:38:14.417Z,24.37
2022-12-18T16:41:04.239Z,21.47
2022-12-18T16:43:35.699Z,26.20
2022-12-18T16:46:07.136Z,25.17
2022-12-18T16:48:38.974Z,27.77
2022-12-18T16:51:10.309Z,22.10
2022-12-18T16:53:41.951Z,26.47
2022-12-18T16:56:13.441Z,23.93
2022-12-18T16:58:44.689Z,21.80
2022-12-18T17:01:16.768Z,22.20
2022-12-18T17:03:56.106Z,21.17
2022-12-18T17:06:29.171Z,23.63
2022-12-18T17:09:04.773Z,26.97
2022-12-18T17:11:36.407Z,21.00
2022-12-18T17:14:26.971Z,21.33
2022-12-18T17:17:20.213Z,19.17
2022-12-18T17:19:52.452Z,21.87
2022-12-18T17:22:23.795Z,20.47
2022-12-18T17:24:55.081Z,16.17
2022-12-18T17:27:26.332Z,25.50
2022-12-18T17:29:57.641Z,22.30
2022-12-18T17:32:29.000Z,17.97
2022-12-18T17:35:05.396Z,19.57
2022-12-18T17:37:38.322Z,24.23
2022-12-18T17:40:10.108Z,20.10
2022-12-18T17:42:41.363Z,16.80
2022-12-18T17:45:12.732Z,21.93
2022-12-18T17:47:44.028Z,15.40
2022-12-18T17:50:15.476Z,16.27
2022-12-18T17:52:46.770Z,18.13
2022-12-18T17:55:18.315Z,18.53
2022-12-18T17:57:49.791Z,15.53
2022-12-18T18:00:21.525Z,14.27
2022-12-18T18:02:53.220Z,15.13
2022-12-18T18:05:24.618Z,19.07
2022-12-18T18:07:57.088Z,11.90
2022-12-18T18:10:28.467Z,14.80
2022-12-18T18:13:18.666Z,14.90
2022-12-18T18:15:59.086Z,16.13
2022-12-18T18:18:31.409Z,14.63
2022-12-18T18:21:07.119Z,12.00
2022-12-18T18:23:39.204Z,15.48
2022-12-18T18:26:12.245Z,12.57
2022-12-18T18:28:43.536Z,18.63
2022-12-18T18:31:14.896Z,20.43
2022-12-18T18:33:46.187Z,18.93
2022-12-18T18:36:17.576Z,15.17
2022-12-18T18:38:49.335Z,14.73
2022-12-18T18:41:22.306Z,15.83
2022-12-18T18:43:58.150Z,14.90
2022-12-18T18:46:29.431Z,12.52
2022-12-18T18:49:00.924Z,15.30
2022-12-18T18:51:35.137Z,20.20
2022-12-18T18:54:06.919Z,19.83
2022-12-18T18:57:03.885Z,15.80
2022-12-18T18:59:31.254Z,15.83
2022-12-18T19:02:04.769Z,17.00
2022-12-18T19:04:36.536Z,17.17
2022-12-18T19:07:26.157Z,16.17
2022-12-18T19:10:04.733Z,17.60
2022-12-18T19:12:55.397Z,14.27
2022-12-18T19:15:26.652Z,16.90
2022-12-18T19:17:58.084Z,17.60
2022-12-18T19:20:29.342Z,13.20
2022-12-18T19:23:00.706Z,12.83
2022-12-18T19:25:38.444Z,11.53
2022-12-18T19:28:21.466Z,11.97
2022-12-18T19:30:59.314Z,19.03
2022-12-18T19:33:43.116Z,15.33
2022-12-18T19:36:22.502Z,16.53
2022-12-18T19:38:55.825Z,12.10
2022-12-18T19:41:31.392Z,17.23
2022-12-18T19:44:07.647Z,13.83
2022-12-18T19:46:42.013Z,16.35
2022-12-18T19:49:18.191Z,12.40
2022-12-18T19:51:50.270Z,12.57
2022-12-18T19:54:21.936Z,14.80
2022-12-18T19:56:53.360Z,13.50
2022-12-18T19:59:24.841Z,12.20
2022-12-18T20:01:56.363Z,14.90
2022-12-18T20:04:28.027Z,18.57
2022-12-18T20:06:59.434Z,15.37
2022-12-18T20:09:31.128Z,11.97
2022-12-18T20:12:03.585Z,13.97
2022-12-18T20:14:34.992Z,16.33
2022-12-18T20:17:06.399Z,14.47
2022-12-18T20:19:37.847Z,14.13
2022-12-18T20:22:09.454Z,15.03
2022-12-18T20:24:40.730Z,19.57
2022-12-18T20:27:16.106Z,17.60
2022-12-18T20:29:49.724Z,16.53
2022-12-18T20:32:21.019Z,14.47
2022-12-18T20:34:52.507Z,13.63
2022-12-18T20:37:24.432Z,15.60
2022-12-18T20:39:56.264Z,14.90
2022-12-18T20:42:27.776Z,14.50
2022-12-18T20:44:59.104Z,14.97
2022-12-18T20:47:30.406Z,19.50
2022-12-18T20:50:01.834Z,12.87
2022-12-18T20:52:33.547Z,14.53
2022-12-18T20:55:06.536Z,14.77
2022-12-18T20:57:38.886Z,13.17
2022-12-18T21:00:11.152Z,13.90
2022-12-18T21:02:43.837Z,20.13
2022-12-18T21:05:15.188Z,18.57
2022-12-18T21:07:46.727Z,12.77
2022-12-18T21:10:18.076Z,15.97
2022-12-18T21:12:50.883Z,13.00
2022-12-18T21:15:31.538Z,12.17
2022-12-18T21:18:02.832Z,14.60
2022-12-18T21:20:34.330Z,16.77
2022-12-18T21:23:15.775Z,16.87
2022-12-18T21:25:55.927Z,15.33
2022-12-18T21:28:27.485Z,16.90
2022-12-18T21:30:58.817Z,16.57
2022-12-18T21:33:30.181Z,20.60
2022-12-18T21:36:08.059Z,21.77
2022-12-18T21:38:39.440Z,19.17
2022-12-18T21:41:30.279Z,14.40
2022-12-18T21:44:08.018Z,17.73
2022-12-18T21:46:48.848Z,15.27
2022-12-18T21:49:23.308Z,13.90
2022-12-18T21:51:56.848Z,17.00
2022-12-18T21:54:29.020Z,19.40
2022-12-18T21:57:02.358Z,19.97
2022-12-18T21:59:39.197Z,15.83
2022-12-18T22:02:13.635Z,18.07
2022-12-18T22:04:46.811Z,18.80
2022-12-18T22:07:18.226Z,12.87
2022-12-18T22:09:49.521Z,18.00
2022-12-18T22:12:35.308Z,13.83
2022-12-18T22:15:07.329Z,17.27
2022-12-18T22:17:38.872Z,15.33
2022-12-18T22:20:10.954Z,12.30
2022-12-18T22:22:42.269Z,19.33
2022-12-18T22:25:13.587Z,22.53
2022-12-18T22:28:04.971Z,14.10
2022-12-18T22:30:36.279Z,14.70
2022-12-18T22:33:07.623Z,19.80
2022-12-18T22:35:39.101Z,12.00
2022-12-18T22:38:10.366Z,15.00
2022-12-18T22:40:41.764Z,18.80
2022-12-18T22:43:13.290Z,14.37
2022-12-18T22:45:47.203Z,22.60
2022-12-18T22:48:18.714Z,11.10
2022-12-18T22:50:50.966Z,12.37
2022-12-18T22:53:25.157Z,13.67
2022-12-18T22:56:02.644Z,16.93
2022-12-18T22:58:33.913Z,13.20
2022-12-18T23:01:06.449Z,15.00
2022-12-18T23:03:37.763Z,17.93
2022-12-18T23:06:09.286Z,13.93
2022-12-18T23:08:40.563Z,13.50
2022-12-18T23:11:12.808Z,13.20
2022-12-18T23:13:44.479Z,14.73
2022-12-18T23:16:18.347Z,13.00
2022-12-18T23:18:55.153Z,12.77
2022-12-18T23:21:26.425Z,12.13
2022-12-18T23:23:58.781Z,11.70
2022-12-18T23:26:30.464Z,12.53
2022-12-18T23:29:03.574Z,12.77
2022-12-18T23:31:37.465Z,18.23
2022-12-18T23:34:12.456Z,11.03
2022-12-18T23:36:46.195Z,14.07
2022-12-18T23:39:29.831Z,10.13
2022-12-18T23:42:01.694Z,12.10
2022-12-18T23:44:33.884Z,13.33
2022-12-18T23:47:06.934Z,12.27
2022-12-18T23:49:38.196Z,12.00
2022-12-18T23:52:09.619Z,14.43
2022-12-18T23:54:41.992Z,15.93
2022-12-18T23:57:13.254Z,11.90
2022-12-18T23:59:44.607Z,13.77
